Time;durP1;ratioP1;P1;durP2;ratioP2;P2;SDS_P1;SDS_P2;PMS_P1;PMS_P2;Temp;Humidity;BMP_temperature;BMP_pressure;BME280_temperature;BME280_humidity;BME280_pressure;Samples;Min_cycle;Max_cycle;Signal;HPM_P1;HPM_P2
2023/05/24 00:01:41;;;;;;;5.40;3.47;;;13.50;23.80;;;;;;5011403;28;20183;-70
2023/05/24 00:04:07;;;;;;;5.43;4.93;;;13.40;23.50;;;;;;5043216;22;20750;-70
2023/05/24 00:06:36;;;;;;;5.50;4.07;;;13.40;24.40;;;;;;5032176;28;20440;-68
2023/05/24 00:09:02;;;;;;;7.00;3.90;;;13.40;24.50;;;;;;5031910;28;20485;-69
2023/05/24 00:11:28;;;;;;;7.27;4.60;;;13.30;24.30;;;;;;5034700;28;20463;-69
2023/05/24 00:13:54;;;;;;;5.07;4.10;;;13.30;24.50;;;;;;5035753;28;20441;-69
2023/05/24 00:16:20;;;;;;;6.20;4.17;;;13.30;24.90;;;;;;5035841;28;20175;-69
2023/05/24 00:18:47;;;;;;;6.37;3.87;;;13.30;24.90;;;;;;5018219;28;20205;-69
2023/05/24 00:21:13;;;;;;;8.73;4.50;;;13.30;24.50;;;;;;5017881;28;20190;-68
2023/05/24 00:23:39;;;;;;;6.03;4.43;;;13.20;24.60;;;;;;5017592;28;21015;-69
2023/05/24 00:26:05;;;;;;;6.00;3.83;;;13.20;24.60;;;;;;5035908;28;20413;-69
2023/05/24 00:28:31;;;;;;;7.37;4.50;;;13.20;24.80;;;;;;5035636;28;20178;-69
2023/05/24 00:30:57;;;;;;;4.73;3.17;;;13.20;24.80;;;;;;5035540;28;20500;-70
2023/05/24 00:33:23;;;;;;;6.63;5.43;;;13.20;24.80;;;;;;5035173;28;20513;-70
2023/05/24 00:35:55;;;;;;;5.47;3.87;;;13.20;24.80;;;;;;5035390;28;20986;-70
2023/05/24 00:38:26;;;;;;;7.70;3.77;;;13.10;24.80;;;;;;5036015;28;20172;-69
2023/05/24 00:40:55;;;;;;;6.80;4.20;;;13.00;24.70;;;;;;5035690;28;20424;-70
2023/05/24 00:43:24;;;;;;;6.57;3.70;;;13.00;25.30;;;;;;5034981;28;20929;-69
2023/05/24 00:46:15;;;;;;;9.07;5.53;;;13.00;25.40;;;;;;5035482;28;20433;-69
2023/05/24 00:48:41;;;;;;;5.87;3.73;;;13.10;24.70;;;;;;5035192;28;20424;-69
2023/05/24 00:51:07;;;;;;;4.93;4.03;;;13.10;24.70;;;;;;5035118;28;20417;-69
2023/05/24 00:53:35;;;;;;;5.80;4.23;;;13.10;24.70;;;;;;5034930;28;20829;-69
2023/05/24 00:56:02;;;;;;;5.23;3.40;;;13.00;25.00;;;;;;5035068;28;20428;-70
2023/05/24 00:58:29;;;;;;;4.97;4.03;;;13.00;25.10;;;;;;5017679;28;20921;-70
2023/05/24 01:00:59;;;;;;;5.77;4.30;;;13.10;24.70;;;;;;5035101;28;20410;-70
2023/05/24 01:03:29;;;;;;;6.87;4.13;;;13.00;24.60;;;;;;5034514;28;20423;-70
2023/05/24 01:06:02;;;;;;;7.00;3.70;;;13.00;24.80;;;;;;5035015;28;20409;-70
2023/05/24 01:08:49;;;;;;;7.53;4.20;;;12.90;24.60;;;;;;5034817;28;20752;-70
2023/05/24 01:11:27;;;;;;;5.13;3.80;;;13.00;24.60;;;;;;5034639;28;20475;-70
2023/05/24 01:14:20;;;;;;;5.40;3.97;;;13.00;24.60;;;;;;5034900;28;20443;-69
2023/05/24 01:17:04;;;;;;;6.87;4.27;;;13.10;24.40;;;;;;5034825;28;20442;-69
2023/05/24 01:20:05;;;;;;;6.00;3.97;;;13.00;24.60;;;;;;5017023;28;21105;-69
2023/05/24 01:22:51;;;;;;;6.50;3.33;;;12.90;24.60;;;;;;5034347;28;20515;-69
2023/05/24 01:25:34;;;;;;;4.50;3.03;;;13.00;24.80;;;;;;5034594;28;20442;-69
2023/05/24 01:28:03;;;;;;;6.50;3.73;;;13.10;24.70;;;;;;5034545;28;20912;-70
2023/05/24 01:30:28;;;;;;;8.43;3.83;;;13.00;24.10;;;;;;5034554;28;20422;-70
2023/05/24 01:32:55;;;;;;;4.77;3.27;;;13.00;24.10;;;;;;5016456;28;20471;-69
2023/05/24 01:35:21;;;;;;;4.60;3.17;;;13.00;23.40;;;;;;5034449;28;20248;-70
2023/05/24 01:37:47;;;;;;;4.80;3.83;;;13.00;22.80;;;;;;5016507;28;20922;-70
2023/05/24 01:40:13;;;;;;;4.60;2.60;;;12.90;21.80;;;;;;5034253;28;20480;-69
2023/05/24 01:42:53;;;;;;;6.70;3.77;;;12.90;22.50;;;;;;5016196;28;20245;-69
2023/05/24 01:45:28;;;;;;;4.23;2.77;;;12.90;20.30;;;;;;5034312;28;20461;-70
2023/05/24 01:48:03;;;;;;;5.50;3.80;;;13.00;20.40;;;;;;5034529;28;20418;-70
2023/05/24 01:50:35;;;;;;;5.67;3.77;;;13.00;19.80;;;;;;5016507;28;20460;-70
2023/05/24 01:53:07;;;;;;;4.90;3.90;;;13.00;17.70;;;;;;5033898;28;20461;-70
2023/05/24 01:55:35;;;;;;;5.40;3.13;;;13.00;17.80;;;;;;5033800;28;20953;-70
2023/05/24 01:58:05;;;;;;;6.40;3.43;;;12.90;17.50;;;;;;5034214;28;20462;-70
2023/05/24 02:00:32;;;;;;;4.63;3.50;;;12.90;16.60;;;;;;5033986;28;20402;-69
2023/05/24 02:02:58;;;;;;;3.97;3.00;;;12.80;16.00;;;;;;5033692;28;20426;-69
2023/05/24 02:05:26;;;;;;;4.50;2.97;;;12.90;15.80;;;;;;5033821;28;20466;-69
2023/05/24 02:07:52;;;;;;;5.60;3.50;;;12.90;16.10;;;;;;5033702;28;20263;-68
2023/05/24 02:10:18;;;;;;;4.50;3.40;;;12.90;15.00;;;;;;5033772;28;20416;-69
2023/05/24 02:12:43;;;;;;;9.07;3.23;;;12.90;15.60;;;;;;5015828;28;20226;-69
2023/05/24 02:15:13;;;;;;;5.90;3.50;;;12.90;15.50;;;;;;5015856;28;20550;-69
2023/05/24 02:17:39;;;;;;;4.10;2.87;;;12.80;15.20;;;;;;5033782;28;20175;-69
2023/05/24 02:20:05;;;;;;;7.30;4.47;;;12.80;15.30;;;;;;5033762;28;20410;-69
2023/05/24 02:22:31;;;;;;;5.70;2.50;;;12.80;15.60;;;;;;5033764;28;20427;-69
2023/05/24 02:24:57;;;;;;;6.00;3.50;;;12.80;16.00;;;;;;5015992;28;20447;-69
2023/05/24 02:27:22;;;;;;;6.17;3.67;;;12.90;15.20;;;;;;5033860;28;20520;-69
2023/05/24 02:29:48;;;;;;;6.93;2.90;;;12.80;14.60;;;;;;5016008;28;20235;-69
2023/05/24 02:32:14;;;;;;;4.90;3.37;;;12.80;14.50;;;;;;5033305;28;20457;-70
2023/05/24 02:34:39;;;;;;;4.37;3.00;;;12.70;14.50;;;;;;5033128;28;20671;-69
2023/05/24 02:37:05;;;;;;;3.50;2.90;;;12.60;14.80;;;;;;5016228;28;20189;-69
2023/05/24 02:39:30;;;;;;;4.73;3.30;;;12.60;15.20;;;;;;5033222;28;20182;-69
2023/05/24 02:41:56;;;;;;;10.63;3.40;;;12.60;15.30;;;;;;5032920;28;20198;-70
2023/05/24 02:44:22;;;;;;;4.83;3.10;;;12.60;15.80;;;;;;5033030;28;20240;-69
2023/05/24 02:46:48;;;;;;;8.77;3.17;;;12.60;15.70;;;;;;5033193;28;20460;-69
2023/05/24 02:49:14;;;;;;;4.80;3.10;;;12.70;15.90;;;;;;5033176;28;20214;-70
2023/05/24 02:51:39;;;;;;;6.47;3.83;;;12.70;15.00;;;;;;5015086;28;20208;-70
2023/05/24 02:54:05;;;;;;;4.80;3.63;;;12.70;15.40;;;;;;5033117;28;20438;-69
2023/05/24 02:56:31;;;;;;;7.37;3.23;;;12.70;15.00;;;;;;5033100;28;20541;-70
2023/05/24 02:58:59;;;;;;;4.53;2.77;;;12.70;15.40;;;;;;5015467;28;20179;-69
2023/05/24 03:01:24;;;;;;;6.47;3.37;;;12.70;15.10;;;;;;5032987;28;20191;-69
2023/05/24 03:03:50;;;;;;;5.07;3.90;;;12.60;16.10;;;;;;5032462;28;20472;-70
2023/05/24 03:06:15;;;;;;;5.43;3.70;;;12.40;16.20;;;;;;5032836;28;20190;-69
2023/05/24 03:08:41;;;;;;;9.47;3.70;;;12.40;16.20;;;;;;5032950;28;20230;-69
2023/05/24 03:11:07;;;;;;;4.37;3.10;;;12.30;16.40;;;;;;5032843;28;20175;-69
2023/05/24 03:13:32;;;;;;;9.30;4.13;;;12.20;16.00;;;;;;5014890;28;20185;-69
2023/05/24 03:16:00;;;;;;;7.33;3.60;;;12.20;16.30;;;;;;5033086;28;20591;-70
2023/05/24 03:18:29;;;;;;;8.73;4.73;;;12.10;16.60;;;;;;5014791;28;20187;-71
2023/05/24 03:20:55;;;;;;;6.63;3.73;;;12.00;15.50;;;;;;5032739;28;20769;-70
2023/05/24 03:23:20;;;;;;;7.93;4.43;;;12.00;16.20;;;;;;5014544;28;20418;-69
2023/05/24 03:25:46;;;;;;;4.50;3.33;;;11.90;16.30;;;;;;5032651;28;20191;-69
2023/05/24 03:28:13;;;;;;;9.70;4.87;;;11.90;16.80;;;;;;5032844;28;20267;-69
2023/05/24 03:30:39;;;;;;;4.67;3.60;;;11.90;17.50;;;;;;5032420;28;20620;-69
2023/05/24 03:33:04;;;;;;;8.87;4.57;;;11.80;17.40;;;;;;5014656;28;20465;-69
2023/05/24 03:35:30;;;;;;;6.57;4.30;;;11.90;17.70;;;;;;5033264;28;20225;-70
2023/05/24 03:37:56;;;;;;;11.30;4.60;;;11.80;17.50;;;;;;5032869;28;20183;-69
2023/05/24 03:40:21;;;;;;;8.03;4.43;;;11.90;17.60;;;;;;5015745;28;20189;-69
2023/05/24 03:42:47;;;;;;;7.73;4.70;;;11.80;17.60;;;;;;5033509;28;20442;-69
2023/05/24 03:45:12;;;;;;;6.80;4.53;;;11.90;18.10;;;;;;5032430;28;20237;-70
2023/05/24 03:47:38;;;;;;;7.00;4.23;;;11.80;17.50;;;;;;5015290;28;20526;-69
2023/05/24 03:50:04;;;;;;;7.70;4.03;;;11.90;17.70;;;;;;5033583;28;20183;-69
2023/05/24 03:52:30;;;;;;;7.93;4.17;;;11.90;17.90;;;;;;5033330;28;20295;-70
2023/05/24 03:54:55;;;;;;;10.20;4.87;;;12.00;17.70;;;;;;5032533;28;20474;-70
2023/05/24 03:57:21;;;;;;;6.30;3.87;;;12.00;17.40;;;;;;5032487;28;20640;-69
2023/05/24 03:59:46;;;;;;;5.30;3.47;;;12.00;17.20;;;;;;5032384;28;20420;-69
2023/05/24 04:02:12;;;;;;;6.73;3.80;;;11.90;16.90;;;;;;5032009;28;20183;-69
2023/05/24 04:04:39;;;;;;;6.70;3.80;;;11.90;16.90;;;;;;5031870;28;20323;-70
2023/05/24 04:07:04;;;;;;;6.00;3.90;;;11.90;17.40;;;;;;5032083;28;20500;-69
2023/05/24 04:09:30;;;;;;;6.60;4.43;;;11.80;17.10;;;;;;5031939;28;20276;-70
2023/05/24 04:11:58;;;;;;;5.57;3.90;;;11.80;17.00;;;;;;5031632;28;20282;-69
2023/05/24 04:14:24;;;;;;;8.80;4.53;;;11.80;17.80;;;;;;5014207;28;20638;-70
2023/05/24 04:16:50;;;;;;;7.73;4.17;;;11.90;17.50;;;;;;5031910;28;20442;-70
2023/05/24 04:19:16;;;;;;;8.90;4.80;;;12.00;17.10;;;;;;5031879;28;20266;-69
2023/05/24 04:21:41;;;;;;;8.97;4.10;;;11.90;17.40;;;;;;5013870;28;20954;-70
2023/05/24 04:24:07;;;;;;;6.87;4.40;;;12.00;17.20;;;;;;5013976;28;20207;-70
2023/05/24 04:26:33;;;;;;;6.37;4.00;;;12.00;17.00;;;;;;5031968;28;20761;-70
2023/05/24 04:28:59;;;;;;;8.27;3.90;;;11.80;17.00;;;;;;5031665;28;20190;-70
2023/05/24 04:31:28;;;;;;;7.73;4.03;;;11.80;16.70;;;;;;5031514;28;20425;-71
2023/05/24 04:33:54;;;;;;;9.53;4.10;;;11.90;16.50;;;;;;5031579;28;20253;-69
2023/05/24 04:36:21;;;;;;;10.07;4.47;;;11.80;17.10;;;;;;5031699;28;20414;-69
2023/05/24 04:38:47;;;;;;;10.30;5.73;;;11.90;16.70;;;;;;5031606;28;20443;-69
2023/05/24 04:41:13;;;;;;;9.13;4.93;;;11.90;16.30;;;;;;5031820;28;20457;-69
2023/05/24 04:43:39;;;;;;;4.80;3.77;;;12.10;16.70;;;;;;5031909;28;20202;-69
2023/05/24 04:46:04;;;;;;;6.83;4.50;;;12.20;16.20;;;;;;5032160;28;20172;-69
2023/05/24 04:48:30;;;;;;;10.00;4.77;;;12.30;16.30;;;;;;5032231;28;20411;-70
2023/05/24 04:51:03;;;;;;;9.70;5.13;;;12.40;15.70;;;;;;5014358;28;20208;-70
2023/05/24 04:53:29;;;;;;;6.20;3.90;;;12.50;15.00;;;;;;5031553;28;20200;-70
2023/05/24 04:55:54;;;;;;;7.30;4.07;;;12.50;14.90;;;;;;5032147;28;20417;-70
2023/05/24 04:58:20;;;;;;;5.17;3.73;;;12.50;15.00;;;;;;5035294;28;20828;-70
2023/05/24 05:00:46;;;;;;;4.80;3.83;;;12.60;14.80;;;;;;5017464;28;20186;-70
2023/05/24 05:03:12;;;;;;;9.40;4.37;;;12.60;15.40;;;;;;5034700;28;20182;-71
2023/05/24 05:05:37;;;;;;;7.17;4.00;;;12.70;15.00;;;;;;5034811;28;20219;-69
2023/05/24 05:08:03;;;;;;;6.70;3.27;;;12.60;14.50;;;;;;5017171;28;20462;-70
2023/05/24 05:10:31;;;;;;;5.33;4.10;;;12.70;14.50;;;;;;5034897;28;20237;-69
2023/05/24 05:12:57;;;;;;;6.47;4.70;;;12.80;15.00;;;;;;5034449;28;20202;-70
2023/05/24 05:15:23;;;;;;;8.50;4.47;;;12.80;14.30;;;;;;5034743;28;20458;-69
2023/05/24 05:17:49;;;;;;;5.03;3.83;;;12.80;14.80;;;;;;5016647;28;20180;-69
2023/05/24 05:20:14;;;;;;;4.77;3.83;;;12.90;14.80;;;;;;5034798;28;20184;-69
2023/05/24 05:22:47;;;;;;;9.90;4.97;;;13.00;14.00;;;;;;5034662;28;20512;-69
2023/05/24 05:25:13;;;;;;;5.93;4.40;;;12.90;14.30;;;;;;5034296;28;20205;-69
2023/05/24 05:27:38;;;;;;;9.40;5.30;;;12.90;14.20;;;;;;5034630;28;20425;-69
2023/05/24 05:30:04;;;;;;;8.20;4.40;;;12.90;14.50;;;;;;5034222;28;20247;-69
2023/05/24 05:32:30;;;;;;;5.50;4.10;;;12.90;14.60;;;;;;5034104;28;20221;-69
2023/05/24 05:34:55;;;;;;;6.80;4.37;;;12.90;14.60;;;;;;5034002;28;20430;-69
2023/05/24 05:37:21;;;;;;;8.20;4.20;;;12.80;14.10;;;;;;5034325;28;20182;-69
2023/05/24 05:39:46;;;;;;;9.23;5.30;;;12.70;14.90;;;;;;5034250;28;20178;-69
2023/05/24 05:42:12;;;;;;;5.57;3.47;;;12.70;14.90;;;;;;5033565;28;20190;-69
2023/05/24 05:44:37;;;;;;;8.40;5.37;;;12.60;14.70;;;;;;5018534;28;20217;-69
2023/05/24 05:47:06;;;;;;;6.13;3.50;;;12.50;15.40;;;;;;5014568;28;20182;-70
2023/05/24 05:49:35;;;;;;;7.90;5.60;;;12.40;15.60;;;;;;5014192;28;20203;-70
2023/05/24 05:52:01;;;;;;;7.60;4.80;;;12.40;15.70;;;;;;5013861;28;20565;-69
2023/05/24 05:54:27;;;;;;;10.77;5.60;;;12.40;15.20;;;;;;4996403;28;20843;-69
2023/05/24 05:56:52;;;;;;;8.30;5.33;;;12.50;15.70;;;;;;5013910;28;20425;-69
2023/05/24 05:59:18;;;;;;;7.37;5.13;;;12.60;14.90;;;;;;4996482;28;20427;-70
2023/05/24 06:01:47;;;;;;;7.23;4.80;;;12.70;14.20;;;;;;5013870;28;20292;-70
2023/05/24 06:04:14;;;;;;;8.87;4.87;;;12.60;13.40;;;;;;5014290;28;20242;-69
2023/05/24 06:06:39;;;;;;;12.13;4.93;;;12.70;14.10;;;;;;5014006;28;20499;-70
2023/05/24 06:09:05;;;;;;;5.73;4.40;;;12.80;13.80;;;;;;4995495;28;20439;-70
2023/05/24 06:11:31;;;;;;;13.13;5.27;;;12.90;13.90;;;;;;5013845;28;20286;-71
2023/05/24 06:13:56;;;;;;;11.30;4.50;;;13.10;13.00;;;;;;5013816;28;20207;-70
2023/05/24 06:16:22;;;;;;;6.33;4.57;;;13.00;11.70;;;;;;5013756;28;20208;-70
2023/05/24 06:18:47;;;;;;;9.40;5.10;;;13.20;12.50;;;;;;5013797;28;20180;-69
2023/05/24 06:21:16;;;;;;;6.77;5.10;;;13.00;11.70;;;;;;5013618;28;20174;-69
2023/05/24 06:23:42;;;;;;;11.10;4.43;;;13.00;11.70;;;;;;4995754;28;20210;-69
2023/05/24 06:26:11;;;;;;;5.40;4.60;;;13.20;11.90;;;;;;5013704;28;20912;-69
2023/05/24 06:28:37;;;;;;;7.40;4.77;;;13.10;11.80;;;;;;5013392;28;20254;-70
2023/05/24 06:31:03;;;;;;;12.07;4.73;;;13.40;11.50;;;;;;4995704;28;20462;-70
2023/05/24 06:33:30;;;;;;;12.27;4.80;;;13.70;10.00;;;;;;5012800;28;20469;-70
2023/05/24 06:35:56;;;;;;;9.70;5.47;;;13.70;9.10;;;;;;5013356;28;20786;-68
2023/05/24 06:38:21;;;;;;;8.73;4.67;;;13.60;9.80;;;;;;5013405;28;20420;-69
2023/05/24 06:40:47;;;;;;;15.10;6.03;;;14.00;9.40;;;;;;4995631;28;20187;-69
2023/05/24 06:43:12;;;;;;;18.33;5.20;;;14.10;8.20;;;;;;5013062;28;20661;-69
2023/05/24 06:45:38;;;;;;;10.87;5.63;;;14.20;7.40;;;;;;5013498;28;20218;-69
2023/05/24 06:48:04;;;;;;;7.53;4.87;;;14.40;7.80;;;;;;5013244;28;20193;-69
2023/05/24 06:50:29;;;;;;;9.90;5.57;;;14.90;7.20;;;;;;5013183;28;20653;-69
2023/05/24 06:52:55;;;;;;;6.33;4.77;;;15.10;6.40;;;;;;5012888;28;20572;-69
2023/05/24 06:55:21;;;;;;;9.27;5.77;;;15.10;5.30;;;;;;5012995;28;20191;-68
2023/05/24 06:57:46;;;;;;;16.60;5.10;;;14.90;5.60;;;;;;5013049;28;20176;-69
2023/05/24 07:00:12;;;;;;;20.87;7.00;;;14.90;6.10;;;;;;4995157;28;20598;-69
2023/05/24 07:02:38;;;;;;;14.80;6.67;;;15.00;5.40;;;;;;5012338;28;20255;-69
2023/05/24 07:05:05;;;;;;;10.10;5.20;;;15.00;5.70;;;;;;5013107;28;20473;-68
2023/05/24 07:07:31;;;;;;;9.73;5.03;;;15.10;5.30;;;;;;5028399;28;20516;-73
2023/05/24 07:09:56;;;;;;;8.50;5.00;;;15.00;5.90;;;;;;5031136;28;20891;-69
2023/05/24 07:12:22;;;;;;;9.77;5.10;;;15.20;5.30;;;;;;5032228;28;20469;-69
2023/05/24 07:14:48;;;;;;;7.60;4.90;;;15.30;5.90;;;;;;5031670;28;20214;-70
2023/05/24 07:17:13;;;;;;;13.27;6.00;;;15.40;4.50;;;;;;5032235;28;20549;-69
2023/05/24 07:19:39;;;;;;;8.40;5.20;;;15.20;5.10;;;;;;5032046;28;20587;-69
2023/05/24 07:22:05;;;;;;;6.20;5.00;;;15.20;5.20;;;;;;5014013;28;20183;-69
2023/05/24 07:24:30;;;;;;;9.03;5.10;;;15.20;5.30;;;;;;5031859;28;20804;-69
2023/05/24 07:26:56;;;;;;;9.43;5.20;;;15.10;5.30;;;;;;5031977;28;20553;-69
2023/05/24 07:29:22;;;;;;;8.27;4.60;;;15.30;4.90;;;;;;5032030;28;20179;-69
2023/05/24 07:31:47;;;;;;;12.63;6.37;;;15.40;4.80;;;;;;5031758;28;20234;-69
2023/05/24 07:34:14;;;;;;;5.77;4.90;;;15.10;4.70;;;;;;5031872;28;20433;-69
2023/05/24 07:36:41;;;;;;;9.80;5.77;;;14.90;5.40;;;;;;5031976;28;20253;-69
2023/05/24 07:39:08;;;;;;;7.17;4.60;;;15.00;4.60;;;;;;5031801;28;20416;-69
2023/05/24 07:41:35;;;;;;;6.10;4.40;;;15.00;5.10;;;;;;5013822;28;20426;-69
2023/05/24 07:44:00;;;;;;;7.40;4.93;;;15.10;4.90;;;;;;5031782;28;20517;-69
2023/05/24 07:46:26;;;;;;;6.03;5.10;;;15.10;5.10;;;;;;5031867;28;20929;-68
2023/05/24 07:48:52;;;;;;;7.30;4.43;;;15.20;5.20;;;;;;5014010;28;20576;-68
2023/05/24 07:51:17;;;;;;;11.00;5.07;;;15.30;4.30;;;;;;5031719;28;20206;-68
2023/05/24 07:53:43;;;;;;;10.73;5.60;;;15.20;4.40;;;;;;5031397;28;20734;-69
2023/05/24 07:56:08;;;;;;;12.00;5.23;;;15.30;4.90;;;;;;5031707;28;20175;-68
2023/05/24 07:58:34;;;;;;;8.83;5.17;;;15.00;4.70;;;;;;5013836;28;20632;-68
2023/05/24 08:01:00;;;;;;;13.00;5.93;;;15.00;6.20;;;;;;5031658;28;20219;-69
2023/05/24 08:03:26;;;;;;;7.37;5.10;;;15.10;5.30;;;;;;5013411;28;20183;-69
2023/05/24 08:05:51;;;;;;;9.70;4.87;;;14.90;5.10;;;;;;5031740;28;20413;-69
2023/05/24 08:08:17;;;;;;;10.67;5.20;;;14.80;5.00;;;;;;5031397;28;20195;-69
2023/05/24 08:10:42;;;;;;;8.30;4.20;;;14.70;5.10;;;;;;5031801;28;20266;-68
2023/05/24 08:13:08;;;;;;;10.03;5.90;;;14.70;5.30;;;;;;5031337;28;20206;-69
2023/05/24 08:15:33;;;;;;;7.23;4.60;;;14.70;5.20;;;;;;5031621;28;20233;-68
2023/05/24 08:17:59;;;;;;;9.73;4.70;;;14.70;4.70;;;;;;5032081;28;20241;-70
2023/05/24 08:20:25;;;;;;;13.00;5.30;;;14.60;4.70;;;;;;5014217;28;20185;-68
2023/05/24 08:22:50;;;;;;;7.40;4.43;;;14.50;4.90;;;;;;5031079;28;20263;-69
2023/05/24 08:25:16;;;;;;;6.73;4.87;;;14.40;4.90;;;;;;5031469;28;20236;-68
2023/05/24 08:27:41;;;;;;;6.33;5.20;;;14.20;5.30;;;;;;5031548;28;20179;-69
2023/05/24 08:30:08;;;;;;;9.20;4.53;;;14.10;5.40;;;;;;5031531;28;20587;-69
2023/05/24 08:32:33;;;;;;;8.73;4.57;;;14.00;5.40;;;;;;5034019;28;20198;-69
2023/05/24 08:34:59;;;;;;;8.40;5.40;;;14.00;5.90;;;;;;5035143;28;20962;-68
2023/05/24 08:37:25;;;;;;;11.53;5.07;;;14.00;6.60;;;;;;5035113;28;20742;-69
2023/05/24 08:39:50;;;;;;;13.40;5.93;;;14.30;6.80;;;;;;5035550;28;20219;-69
2023/05/24 08:42:16;;;;;;;8.77;5.23;;;14.40;6.30;;;;;;5034861;28;20183;-69
2023/05/24 08:44:52;;;;;;;6.17;4.27;;;14.20;5.30;;;;;;5034980;28;20272;-69
2023/05/24 08:47:21;;;;;;;5.37;4.33;;;14.00;6.10;;;;;;5034890;28;20180;-70
2023/05/24 08:49:49;;;;;;;9.80;4.80;;;13.70;6.80;;;;;;5034874;28;20442;-69
2023/05/24 08:52:15;;;;;;;10.23;5.07;;;13.60;7.50;;;;;;5016573;28;20461;-70
2023/05/24 08:54:42;;;;;;;6.13;4.50;;;13.30;8.20;;;;;;5034854;28;20460;-70
2023/05/24 08:57:10;;;;;;;7.77;5.43;;;13.10;9.30;;;;;;5017204;28;20827;-69
2023/05/24 08:59:38;;;;;;;7.27;5.27;;;13.00;10.00;;;;;;5035001;28;20414;-69
2023/05/24 09:02:04;;;;;;;6.03;5.00;;;13.00;10.50;;;;;;5034498;28;20414;-69
2023/05/24 09:04:30;;;;;;;7.37;4.37;;;13.00;11.00;;;;;;5034415;28;20608;-69
2023/05/24 09:06:56;;;;;;;13.90;7.27;;;13.10;11.20;;;;;;5034836;28;20449;-69
2023/05/24 09:09:25;;;;;;;11.63;6.07;;;13.60;11.50;;;;;;5034616;28;20256;-69
2023/05/24 09:11:55;;;;;;;9.77;5.60;;;14.00;9.30;;;;;;5034194;28;20844;-69
2023/05/24 09:14:21;;;;;;;8.50;5.40;;;14.40;8.70;;;;;;5016728;28;20434;-70
2023/05/24 09:16:46;;;;;;;10.50;5.67;;;14.30;8.20;;;;;;5034494;28;20416;-69
2023/05/24 09:19:12;;;;;;;14.73;5.30;;;14.50;8.30;;;;;;5034689;28;20490;-69
2023/05/24 09:21:39;;;;;;;6.40;5.33;;;14.60;7.40;;;;;;5034078;28;20203;-69
2023/05/24 09:24:10;;;;;;;16.37;5.53;;;14.40;7.90;;;;;;5016539;28;20440;-70
2023/05/24 09:26:35;;;;;;;7.80;5.50;;;14.50;7.50;;;;;;5034321;28;20421;-70
2023/05/24 09:29:05;;;;;;;8.80;6.13;;;14.50;7.50;;;;;;5034320;28;20424;-68
2023/05/24 09:31:33;;;;;;;11.07;6.13;;;14.50;7.70;;;;;;5033812;28;20171;-69
2023/05/24 09:33:59;;;;;;;9.40;6.67;;;14.40;7.50;;;;;;5034233;28;20429;-68
2023/05/24 09:36:31;;;;;;;12.93;6.50;;;14.30;8.20;;;;;;5034331;28;20463;-68
2023/05/24 09:39:08;;;;;;;12.33;5.93;;;14.50;7.50;;;;;;5034219;28;20440;-68
2023/05/24 09:41:37;;;;;;;12.47;6.43;;;14.80;7.80;;;;;;5033723;28;20426;-69
2023/05/24 09:44:04;;;;;;;12.53;5.30;;;15.30;6.60;;;;;;5014561;28;20449;-70
2023/05/24 09:46:35;;;;;;;7.33;6.37;;;15.60;4.90;;;;;;5034055;28;20414;-68
2023/05/24 09:49:05;;;;;;;9.07;6.23;;;16.10;4.90;;;;;;5034145;28;20406;-69
2023/05/24 09:51:31;;;;;;;9.80;6.10;;;16.20;4.30;;;;;;5033573;28;20417;-69
2023/05/24 09:54:00;;;;;;;8.00;5.43;;;16.50;3.90;;;;;;5033727;28;20434;-68
2023/05/24 09:56:26;;;;;;;12.70;6.60;;;16.70;3.20;;;;;;5015866;28;20503;-69
2023/05/24 09:58:53;;;;;;;8.80;5.73;;;16.70;2.30;;;;;;5033829;28;20413;-68
2023/05/24 10:01:23;;;;;;;11.67;6.50;;;16.90;2.80;;;;;;5033590;28;20552;-68
2023/05/24 10:03:56;;;;;;;9.80;5.30;;;17.10;1.90;;;;;;5033208;28;20450;-69
2023/05/24 10:06:22;;;;;;;15.73;6.87;;;17.10;1.50;;;;;;5033548;28;20688;-68
2023/05/24 10:08:50;;;;;;;7.27;5.30;;;16.90;2.30;;;;;;5033591;28;20751;-68
2023/05/24 10:11:17;;;;;;;9.60;5.90;;;16.90;1.70;;;;;;5033413;28;20661;-68
2023/05/24 10:13:43;;;;;;;8.70;6.17;;;16.70;2.00;;;;;;5032967;28;20466;-68
2023/05/24 10:16:09;;;;;;;12.17;6.20;;;16.50;2.30;;;;;;5015517;28;20489;-68
2023/05/24 10:18:34;;;;;;;11.07;6.63;;;16.50;2.40;;;;;;5033485;28;20950;-68
2023/05/24 10:21:01;;;;;;;6.50;5.90;;;16.30;2.50;;;;;;5033515;28;20641;-68
2023/05/24 10:23:31;;;;;;;10.20;6.63;;;15.90;2.70;;;;;;5032944;28;20218;-68
2023/05/24 10:26:10;;;;;;;10.50;5.40;;;15.80;3.50;;;;;;5033364;28;20417;-69
2023/05/24 10:28:41;;;;;;;8.03;5.00;;;15.70;3.40;;;;;;5033415;28;20941;-68
2023/05/24 10:31:15;;;;;;;9.87;5.97;;;15.30;4.30;;;;;;5015543;28;20422;-69
2023/05/24 10:33:43;;;;;;;14.00;6.33;;;15.50;4.00;;;;;;5033152;28;20458;-68
2023/05/24 10:36:12;;;;;;;8.07;5.73;;;15.50;4.50;;;;;;5033246;28;20410;-69
2023/05/24 10:38:39;;;;;;;8.53;6.33;;;15.30;4.30;;;;;;5033135;28;20405;-68
2023/05/24 10:41:06;;;;;;;14.63;6.00;;;15.30;4.30;;;;;;5033002;28;20409;-68
2023/05/24 10:43:35;;;;;;;10.47;5.00;;;15.10;4.90;;;;;;5032419;28;20414;-68
2023/05/24 10:46:03;;;;;;;8.70;5.90;;;14.90;4.70;;;;;;5032783;28;20780;-68
2023/05/24 10:48:28;;;;;;;12.00;5.50;;;14.70;5.50;;;;;;5032905;28;20429;-69
2023/05/24 10:50:55;;;;;;;11.27;5.00;;;14.70;6.40;;;;;;5032796;28;20409;-68
2023/05/24 10:53:26;;;;;;;8.43;6.13;;;14.60;6.40;;;;;;5032276;28;20217;-69
2023/05/24 10:55:53;;;;;;;14.57;5.60;;;14.60;7.30;;;;;;5014872;28;20790;-69
2023/05/24 10:58:19;;;;;;;20.77;5.80;;;14.60;6.20;;;;;;5032627;28;20406;-70
2023/05/24 11:00:47;;;;;;;9.03;5.47;;;14.10;6.60;;;;;;5032783;28;20973;-69
2023/05/24 11:03:15;;;;;;;9.43;6.33;;;14.00;6.50;;;;;;5032308;28;20493;-69
2023/05/24 11:05:46;;;;;;;9.07;5.20;;;13.90;7.00;;;;;;5032467;28;20993;-69
2023/05/24 11:08:12;;;;;;;14.83;5.07;;;13.90;7.90;;;;;;5014871;28;20781;-69
2023/05/24 11:10:38;;;;;;;9.27;6.20;;;13.90;7.90;;;;;;5032610;28;20410;-69
2023/05/24 11:13:07;;;;;;;10.20;6.07;;;13.90;7.90;;;;;;5032170;28;20210;-69
2023/05/24 11:15:34;;;;;;;7.90;5.67;;;13.80;7.80;;;;;;5032487;28;20236;-69
2023/05/24 11:18:07;;;;;;;12.23;6.37;;;13.90;8.20;;;;;;5032453;28;20877;-69
2023/05/24 11:20:33;;;;;;;10.57;6.47;;;14.00;8.70;;;;;;5014669;28;20918;-69
2023/05/24 11:22:59;;;;;;;9.33;5.10;;;14.10;8.20;;;;;;5014433;28;20418;-69
2023/05/24 11:25:26;;;;;;;8.00;5.60;;;14.10;8.10;;;;;;5032268;28;20191;-69
2023/05/24 11:27:52;;;;;;;9.40;6.00;;;14.10;9.20;;;;;;5032411;28;20418;-69
2023/05/24 11:30:18;;;;;;;11.77;6.43;;;14.00;8.90;;;;;;5032349;28;20421;-69
2023/05/24 11:32:47;;;;;;;10.70;5.80;;;14.10;9.00;;;;;;5032110;28;20900;-69
2023/05/24 11:35:13;;;;;;;17.33;7.57;;;13.90;7.90;;;;;;5032183;28;20437;-69
2023/05/24 11:37:39;;;;;;;13.47;6.47;;;13.80;7.80;;;;;;5032555;28;20802;-69
2023/05/24 11:40:09;;;;;;;13.33;6.20;;;13.70;7.80;;;;;;5032336;28;20412;-69
2023/05/24 11:42:36;;;;;;;17.40;6.93;;;13.60;8.30;;;;;;5031753;28;20418;-69
2023/05/24 11:45:03;;;;;;;10.70;5.47;;;13.80;8.50;;;;;;5032012;28;20486;-70
2023/05/24 11:47:29;;;;;;;19.70;9.97;;;13.80;7.60;;;;;;5032178;28;20504;-69
2023/05/24 11:49:55;;;;;;;8.47;5.60;;;13.70;7.80;;;;;;5032012;28;20502;-69
2023/05/24 11:52:20;;;;;;;7.83;5.80;;;13.90;7.70;;;;;;5031691;28;20261;-69
2023/05/24 11:54:48;;;;;;;12.63;8.00;;;13.90;6.90;;;;;;5014005;28;20696;-69
2023/05/24 11:57:14;;;;;;;12.13;6.90;;;14.00;7.30;;;;;;5032166;28;20509;-69
2023/05/24 11:59:40;;;;;;;12.73;6.63;;;14.10;7.40;;;;;;5032094;28;20464;-70
2023/05/24 12:02:09;;;;;;;19.27;8.13;;;14.10;7.10;;;;;;5031919;28;20906;-69
2023/05/24 12:04:34;;;;;;;6.63;5.40;;;14.10;8.00;;;;;;5047968;22;20485;-71
2023/05/24 12:07:00;;;;;;;12.23;6.23;;;14.10;8.50;;;;;;5014292;28;20409;-71
2023/05/24 12:09:27;;;;;;;9.13;5.53;;;14.00;9.40;;;;;;5031350;28;20180;-71
2023/05/24 12:11:53;;;;;;;11.90;5.00;;;14.00;10.00;;;;;;5016361;28;20460;-71
2023/05/24 12:14:23;;;;;;;16.70;6.53;;;14.10;10.50;;;;;;5015954;28;20997;-71
2023/05/24 12:16:49;;;;;;;9.40;6.07;;;14.20;9.90;;;;;;5016112;28;20472;-71
2023/05/24 12:19:24;;;;;;;7.27;5.30;;;14.00;10.40;;;;;;5015959;28;20553;-71
2023/05/24 12:21:53;;;;;;;13.20;5.97;;;14.20;11.50;;;;;;5014354;28;20437;-71
2023/05/24 12:24:19;;;;;;;9.50;6.30;;;14.20;9.80;;;;;;5015655;28;20437;-71
2023/05/24 12:26:47;;;;;;;16.70;7.00;;;14.10;10.10;;;;;;5015714;28;20907;-71
2023/05/24 12:29:13;;;;;;;10.50;6.20;;;14.00;10.10;;;;;;5015828;28;20686;-71
2023/05/24 12:31:41;;;;;;;13.47;6.30;;;13.90;10.20;;;;;;5015548;28;20453;-71
2023/05/24 12:34:11;;;;;;;10.00;6.23;;;14.10;10.10;;;;;;5015585;28;20521;-71
2023/05/24 12:36:37;;;;;;;9.10;5.37;;;14.40;10.20;;;;;;5015587;28;20415;-71
2023/05/24 12:39:19;;;;;;;9.67;5.90;;;14.80;8.70;;;;;;5015414;28;20568;-71
2023/05/24 12:41:52;;;;;;;12.27;7.23;;;15.00;8.50;;;;;;5016327;28;20898;-71
2023/05/24 12:44:28;;;;;;;12.37;7.20;;;15.50;7.20;;;;;;5016376;28;20426;-71
2023/05/24 12:46:55;;;;;;;10.03;5.20;;;15.90;5.60;;;;;;5014291;28;20569;-71
2023/05/24 12:49:24;;;;;;;8.93;5.67;;;15.60;5.20;;;;;;5015536;28;20411;-71